createdAt,value
2019-05-29T00:00:27.077Z,8.58
2019-05-29T00:02:58.261Z,7.55
2019-05-29T00:05:29.638Z,8.00
2019-05-29T00:08:00.778Z,8.43
2019-05-29T00:10:32.365Z,8.48
2019-05-29T00:13:04.019Z,9.45
2019-05-29T00:15:35.332Z,9.60
2019-05-29T00:18:06.780Z,8.78
2019-05-29T00:20:38.378Z,8.95
2019-05-29T00:23:10.492Z,9.60
2019-05-29T00:25:41.984Z,9.78
2019-05-29T00:28:14.759Z,8.95
2019-05-29T00:30:47.559Z,9.70
2019-05-29T00:33:19.122Z,10.20
2019-05-29T00:35:50.703Z,9.98
2019-05-29T00:38:21.880Z,9.70
2019-05-29T00:40:53.129Z,10.68
2019-05-29T00:43:24.790Z,10.38
2019-05-29T00:45:55.909Z,11.12
2019-05-29T00:48:27.051Z,10.53
2019-05-29T00:50:58.456Z,10.63
2019-05-29T00:53:29.777Z,10.53
2019-05-29T00:56:01.362Z,10.60
2019-05-29T00:58:32.889Z,10.72
2019-05-29T01:01:05.077Z,10.55
2019-05-29T01:03:36.524Z,10.05
2019-05-29T01:06:07.893Z,11.35
2019-05-29T01:08:39.114Z,9.93
2019-05-29T01:11:10.634Z,10.45
2019-05-29T01:13:41.923Z,11.03
2019-05-29T01:16:13.398Z,11.20
2019-05-29T01:18:44.740Z,10.35
2019-05-29T01:21:16.106Z,11.75
2019-05-29T01:23:47.417Z,10.48
2019-05-29T01:26:18.997Z,10.80
2019-05-29T01:28:50.705Z,11.18
2019-05-29T01:31:21.884Z,12.07
2019-05-29T01:33:53.121Z,12.90
2019-05-29T01:36:25.056Z,12.68
2019-05-29T01:38:56.198Z,12.63
2019-05-29T01:41:27.598Z,12.37
2019-05-29T01:43:59.230Z,13.43
2019-05-29T01:46:30.563Z,13.78
2019-05-29T01:49:01.863Z,13.70
2019-05-29T01:51:33.051Z,13.38
2019-05-29T01:54:04.833Z,13.48
2019-05-29T01:56:36.033Z,12.95
2019-05-29T01:59:07.356Z,13.83
2019-05-29T02:01:38.571Z,15.58
2019-05-29T02:04:09.887Z,13.88
2019-05-29T02:06:41.063Z,14.93
2019-05-29T02:09:12.284Z,12.60
2019-05-29T02:11:43.429Z,14.15
2019-05-29T02:14:14.956Z,12.85
2019-05-29T02:16:46.167Z,12.73
2019-05-29T02:19:17.782Z,13.10
2019-05-29T02:21:49.076Z,12.60
2019-05-29T02:24:21.148Z,12.00
2019-05-29T02:26:52.512Z,12.85
2019-05-29T02:29:24.864Z,11.88
2019-05-29T02:31:56.548Z,12.25
2019-05-29T02:34:29.699Z,11.63
2019-05-29T02:37:00.802Z,10.98
2019-05-29T02:39:32.430Z,10.72
2019-05-29T02:42:03.833Z,11.00
2019-05-29T02:44:35.111Z,10.03
2019-05-29T02:47:06.287Z,9.50
2019-05-29T02:49:37.522Z,9.48
2019-05-29T02:52:09.274Z,8.18
2019-05-29T02:54:40.508Z,9.08
2019-05-29T02:57:11.743Z,7.90
2019-05-29T02:59:43.525Z,7.67
2019-05-29T03:02:14.736Z,6.33
2019-05-29T03:04:45.994Z,4.97
2019-05-29T03:07:17.321Z,4.03
2019-05-29T03:09:49.010Z,4.12
2019-05-29T03:12:20.563Z,4.25
2019-05-29T03:14:52.219Z,4.12
2019-05-29T03:17:23.749Z,4.10
2019-05-29T03:19:55.714Z,3.58
2019-05-29T03:22:28.786Z,4.70
2019-05-29T03:25:00.175Z,3.83
2019-05-29T03:27:31.953Z,4.03
2019-05-29T03:30:04.760Z,3.65
2019-05-29T03:32:45.526Z,4.20
2019-05-29T03:35:09.342Z,3.60
2019-05-29T03:37:40.537Z,4.20
2019-05-29T03:40:12.572Z,4.37
2019-05-29T03:42:44.112Z,3.02
2019-05-29T03:45:16.794Z,3.05
2019-05-29T03:47:47.952Z,2.47
2019-05-29T03:50:19.584Z,5.03
2019-05-29T03:52:51.094Z,2.75
2019-05-29T03:55:22.347Z,2.40
2019-05-29T03:57:53.461Z,4.60
2019-05-29T04:00:29.891Z,3.27
2019-05-29T04:03:16.730Z,2.60
2019-05-29T04:05:48.241Z,5.28
2019-05-29T04:08:19.455Z,3.25
2019-05-29T04:10:51.162Z,2.90
2019-05-29T04:13:22.422Z,3.67
2019-05-29T04:15:56.357Z,3.20
2019-05-29T04:18:29.700Z,3.47
2019-05-29T04:21:02.804Z,5.17
2019-05-29T04:23:36.418Z,3.45
2019-05-29T04:26:09.966Z,4.12
2019-05-29T04:28:41.323Z,4.65
2019-05-29T04:31:12.617Z,3.58
2019-05-29T04:33:44.149Z,3.75
2019-05-29T04:36:15.461Z,5.72
2019-05-29T04:38:46.674Z,5.22
2019-05-29T04:41:18.035Z,3.22
2019-05-29T04:43:49.330Z,3.95
2019-05-29T04:46:20.888Z,4.03
2019-05-29T04:48:52.121Z,2.90
2019-05-29T04:51:23.214Z,3.12
2019-05-29T04:53:54.459Z,5.25
2019-05-29T04:56:25.536Z,3.08
2019-05-29T04:58:57.310Z,3.10
2019-05-29T05:01:28.987Z,4.08
2019-05-29T05:04:00.655Z,3.10
2019-05-29T05:06:31.803Z,3.10
2019-05-29T05:09:03.827Z,2.15
2019-05-29T05:11:35.464Z,3.22
2019-05-29T05:14:07.090Z,2.67
2019-05-29T05:16:38.555Z,2.58
2019-05-29T05:19:10.453Z,3.83
2019-05-29T05:21:41.647Z,5.05
2019-05-29T05:24:12.757Z,3.85
2019-05-29T05:26:44.212Z,2.87
2019-05-29T05:29:15.438Z,2.85
2019-05-29T05:31:46.713Z,2.80
2019-05-29T05:34:18.336Z,4.72
2019-05-29T05:36:50.197Z,4.95
2019-05-29T05:39:21.677Z,2.98
2019-05-29T05:41:53.246Z,4.85
2019-05-29T05:44:24.387Z,4.42
2019-05-29T05:46:56.312Z,5.53
2019-05-29T05:49:27.497Z,3.08
2019-05-29T05:51:59.147Z,3.15
2019-05-29T05:54:31.275Z,5.85
2019-05-29T05:57:02.560Z,4.40
2019-05-29T05:59:33.697Z,3.17
2019-05-29T06:02:04.993Z,4.83
2019-05-29T06:04:37.885Z,3.98
2019-05-29T06:07:09.279Z,4.28
2019-05-29T06:09:40.527Z,5.50
2019-05-29T06:12:12.037Z,5.12
2019-05-29T06:14:43.531Z,5.83
2019-05-29T06:17:14.784Z,5.22
2019-05-29T06:19:46.268Z,4.58
2019-05-29T06:22:17.480Z,4.05
2019-05-29T06:24:48.837Z,3.22
2019-05-29T06:27:20.219Z,2.70
2019-05-29T06:29:51.502Z,2.42
2019-05-29T06:32:23.308Z,3.92
2019-05-29T06:34:54.793Z,3.25
2019-05-29T06:37:25.944Z,2.33
2019-05-29T06:39:57.773Z,4.30
2019-05-29T06:42:29.843Z,2.45
2019-05-29T06:45:01.363Z,3.20
2019-05-29T06:47:34.246Z,3.50
2019-05-29T06:50:07.588Z,2.40
2019-05-29T06:52:39.484Z,4.37
2019-05-29T06:55:10.898Z,3.55
2019-05-29T06:57:42.732Z,3.15
2019-05-29T07:00:34.009Z,2.98
2019-05-29T07:02:49.382Z,3.27
2019-05-29T07:05:20.638Z,4.05
2019-05-29T07:07:51.912Z,3.37
2019-05-29T07:10:23.232Z,2.90
2019-05-29T07:12:54.715Z,2.67
2019-05-29T07:15:26.101Z,2.15
2019-05-29T07:17:57.618Z,2.72
2019-05-29T07:20:29.280Z,5.00
2019-05-29T07:23:00.560Z,3.33
2019-05-29T07:25:31.738Z,2.58
2019-05-29T07:28:03.324Z,4.75
2019-05-29T07:30:34.580Z,2.83
2019-05-29T07:33:05.873Z,5.12
2019-05-29T07:35:37.219Z,4.25
2019-05-29T07:38:08.605Z,4.42
2019-05-29T07:40:40.631Z,5.55
2019-05-29T07:43:12.853Z,3.27
2019-05-29T07:45:44.141Z,3.85
2019-05-29T07:48:15.469Z,4.28
2019-05-29T07:50:46.745Z,3.35
2019-05-29T07:53:18.372Z,2.90
2019-05-29T07:55:49.630Z,3.12
2019-05-29T07:58:21.009Z,4.70
2019-05-29T08:01:09.798Z,2.55
2019-05-29T08:03:25.318Z,4.45
2019-05-29T08:05:56.581Z,2.92
2019-05-29T08:08:28.824Z,3.70
2019-05-29T08:11:00.549Z,2.62
2019-05-29T08:13:31.712Z,3.37
2019-05-29T08:16:03.449Z,3.10
2019-05-29T08:18:34.935Z,3.27
2019-05-29T08:21:06.196Z,3.90
2019-05-29T08:23:37.399Z,2.75
2019-05-29T08:26:08.964Z,3.05
2019-05-29T08:28:40.475Z,3.70
2019-05-29T08:31:12.135Z,2.62
2019-05-29T08:33:44.776Z,3.98
2019-05-29T08:36:16.589Z,3.47
2019-05-29T08:38:47.901Z,2.58
2019-05-29T08:41:19.165Z,4.50
2019-05-29T08:43:50.861Z,3.40
2019-05-29T08:46:23.241Z,2.40
2019-05-29T08:48:54.443Z,4.67
2019-05-29T08:51:25.625Z,4.22
2019-05-29T08:53:57.032Z,4.15
2019-05-29T08:56:28.331Z,3.90
2019-05-29T08:58:59.841Z,2.72
2019-05-29T09:01:31.288Z,2.72
2019-05-29T09:04:03.678Z,2.77
2019-05-29T09:06:34.872Z,3.08
2019-05-29T09:09:08.633Z,3.47
2019-05-29T09:11:39.842Z,3.72
2019-05-29T09:14:11.048Z,4.87
2019-05-29T09:16:42.610Z,4.87
2019-05-29T09:19:14.287Z,2.62
2019-05-29T09:21:45.628Z,5.17
2019-05-29T09:24:17.556Z,2.27
2019-05-29T09:26:49.329Z,3.50
2019-05-29T09:29:23.374Z,2.58
2019-05-29T09:31:54.115Z,3.55
2019-05-29T09:34:25.871Z,3.80
2019-05-29T09:36:57.126Z,3.10
2019-05-29T09:39:28.399Z,5.58
2019-05-29T09:41:59.769Z,3.22
2019-05-29T09:44:38.462Z,2.80
2019-05-29T09:47:04.056Z,3.05
2019-05-29T09:49:36.821Z,3.95
2019-05-29T09:52:07.982Z,3.72
2019-05-29T09:54:39.123Z,4.90
2019-05-29T09:57:10.367Z,3.98
2019-05-29T09:59:42.016Z,3.62
2019-05-29T10:02:13.299Z,3.62
2019-05-29T10:04:44.549Z,3.70
2019-05-29T10:07:16.348Z,5.42
2019-05-29T10:09:47.554Z,4.12
2019-05-29T10:12:18.987Z,4.22
2019-05-29T10:14:51.368Z,4.15
2019-05-29T10:17:24.004Z,4.28
2019-05-29T10:19:55.901Z,4.65
2019-05-29T10:22:28.793Z,7.60
2019-05-29T10:25:00.573Z,3.95
2019-05-29T10:27:33.392Z,4.15
2019-05-29T10:30:05.119Z,3.80
2019-05-29T10:32:36.427Z,3.50
2019-05-29T10:35:07.897Z,4.30
2019-05-29T10:37:39.193Z,4.83
2019-05-29T10:40:11.993Z,6.17
2019-05-29T10:42:43.304Z,3.00
2019-05-29T10:45:15.799Z,5.78
2019-05-29T10:47:47.447Z,4.17
2019-05-29T10:50:18.830Z,5.03
2019-05-29T10:52:50.412Z,3.92
2019-05-29T10:55:24.556Z,3.95
2019-05-29T10:57:56.076Z,4.45
2019-05-29T11:00:27.576Z,4.03
2019-05-29T11:02:59.675Z,3.42
2019-05-29T11:05:31.286Z,6.50
2019-05-29T11:08:02.490Z,3.95
2019-05-29T11:10:33.686Z,3.90
2019-05-29T11:13:04.974Z,5.90
2019-05-29T11:15:36.217Z,4.70
2019-05-29T11:18:07.415Z,5.30
2019-05-29T11:20:38.693Z,5.55
2019-05-29T11:23:10.345Z,5.10
2019-05-29T11:25:42.222Z,5.55
2019-05-29T11:28:13.865Z,3.87
2019-05-29T11:30:45.036Z,4.75
2019-05-29T11:33:16.559Z,4.17
2019-05-29T11:35:58.349Z,3.22
2019-05-29T11:38:21.440Z,3.37
2019-05-29T11:41:20.231Z,3.33
2019-05-29T11:43:26.688Z,4.42
2019-05-29T11:45:59.491Z,4.22
2019-05-29T11:48:30.854Z,3.37
2019-05-29T11:51:02.498Z,3.40
2019-05-29T11:53:34.119Z,3.20
2019-05-29T11:56:05.558Z,3.27
2019-05-29T11:58:36.698Z,3.98
2019-05-29T12:01:07.940Z,4.83
2019-05-29T12:04:05.985Z,2.92
2019-05-29T12:06:12.170Z,2.75
2019-05-29T12:08:43.450Z,2.72
2019-05-29T12:11:14.641Z,3.12
2019-05-29T12:13:45.849Z,2.37
2019-05-29T12:16:17.251Z,2.52
2019-05-29T12:18:48.777Z,1.70
2019-05-29T12:21:20.347Z,1.92
2019-05-29T12:23:51.998Z,3.40
2019-05-29T12:26:23.688Z,2.98
2019-05-29T12:29:03.917Z,2.92
2019-05-29T12:31:28.129Z,2.15
2019-05-29T12:34:06.695Z,2.47
2019-05-29T12:36:33.331Z,2.55
2019-05-29T12:39:05.677Z,2.83
2019-05-29T12:41:36.854Z,1.80
2019-05-29T12:44:08.160Z,1.95
2019-05-29T12:46:39.679Z,1.98
2019-05-29T12:49:11.221Z,1.40
2019-05-29T12:51:43.070Z,1.92
2019-05-29T12:54:14.628Z,2.85
2019-05-29T12:56:45.730Z,2.05
2019-05-29T12:59:17.009Z,1.85
2019-05-29T13:01:48.579Z,1.62
2019-05-29T13:04:19.780Z,3.22
2019-05-29T13:06:50.997Z,1.55
2019-05-29T13:09:22.620Z,4.05
2019-05-29T13:11:54.349Z,1.30
2019-05-29T13:14:25.577Z,1.35
2019-05-29T13:16:56.776Z,2.33
2019-05-29T13:19:28.051Z,1.37
2019-05-29T13:21:59.344Z,1.07
2019-05-29T13:24:30.620Z,0.80
2019-05-29T13:27:01.912Z,1.30
2019-05-29T13:29:33.050Z,1.22
2019-05-29T13:32:06.033Z,1.70
2019-05-29T13:34:37.585Z,2.75
2019-05-29T13:37:09.825Z,2.95
2019-05-29T13:39:41.229Z,2.10
2019-05-29T13:42:12.534Z,1.95
2019-05-29T13:44:43.806Z,2.25
2019-05-29T13:47:15.092Z,1.52
2019-05-29T13:49:46.230Z,2.75
2019-05-29T13:52:17.534Z,1.40
2019-05-29T13:54:48.768Z,1.72
2019-05-29T13:57:19.952Z,2.98
2019-05-29T13:59:51.419Z,1.40
2019-05-29T14:02:22.857Z,1.40
2019-05-29T14:04:54.455Z,2.45
2019-05-29T14:07:26.318Z,1.70
2019-05-29T14:09:58.838Z,1.20
2019-05-29T14:12:30.554Z,1.32
2019-05-29T14:15:02.169Z,2.77
2019-05-29T14:17:34.888Z,1.05
2019-05-29T14:20:06.894Z,1.50
2019-05-29T14:22:38.223Z,1.50
2019-05-29T14:25:13.234Z,1.25
2019-05-29T14:27:44.488Z,1.65
2019-05-29T14:30:18.367Z,1.87
2019-05-29T14:32:49.491Z,2.15
2019-05-29T14:35:20.792Z,1.60
2019-05-29T14:37:52.393Z,1.00
2019-05-29T14:40:23.673Z,1.70
2019-05-29T14:42:54.721Z,1.07
2019-05-29T14:45:26.430Z,1.32
2019-05-29T14:47:57.605Z,0.80
2019-05-29T14:50:29.123Z,0.98
2019-05-29T14:53:00.299Z,1.50
2019-05-29T14:55:32.516Z,1.20
2019-05-29T14:58:03.733Z,1.32
2019-05-29T15:00:35.229Z,1.22
2019-05-29T15:03:07.380Z,2.33
2019-05-29T15:05:39.044Z,0.85
2019-05-29T15:08:10.222Z,0.93
2019-05-29T15:10:41.859Z,1.35
2019-05-29T15:13:15.128Z,1.10
2019-05-29T15:15:46.799Z,0.95
2019-05-29T15:18:19.166Z,1.90
2019-05-29T15:20:51.560Z,2.08
2019-05-29T15:23:23.411Z,0.98
2019-05-29T15:25:54.614Z,1.05
2019-05-29T15:28:26.111Z,1.20
2019-05-29T15:30:57.485Z,1.00
2019-05-29T15:33:28.687Z,1.40
2019-05-29T15:36:00.168Z,1.17
2019-05-29T15:38:32.837Z,0.82
2019-05-29T15:41:04.494Z,1.90
2019-05-29T15:43:36.446Z,1.22
2019-05-29T15:46:09.974Z,2.83
2019-05-29T15:48:41.015Z,2.17
2019-05-29T15:51:13.212Z,1.82
2019-05-29T15:53:44.478Z,1.45
2019-05-29T15:56:25.403Z,1.45
2019-05-29T15:58:48.648Z,1.25
2019-05-29T16:01:19.852Z,1.62
2019-05-29T16:03:51.143Z,1.35
2019-05-29T16:06:22.543Z,3.92
2019-05-29T16:08:53.754Z,1.85
2019-05-29T16:11:26.385Z,0.62
2019-05-29T16:13:57.764Z,0.90
2019-05-29T16:16:28.928Z,2.30
2019-05-29T16:19:00.585Z,1.30
2019-05-29T16:21:31.882Z,0.85
2019-05-29T16:24:03.130Z,2.10
2019-05-29T16:26:34.361Z,3.05
2019-05-29T16:29:05.603Z,1.55
2019-05-29T16:31:37.143Z,1.85
2019-05-29T16:34:08.450Z,2.00
2019-05-29T16:36:39.973Z,0.70
2019-05-29T16:39:11.516Z,1.85
2019-05-29T16:41:43.739Z,2.60
2019-05-29T16:44:16.333Z,1.12
2019-05-29T16:46:47.691Z,1.75
2019-05-29T16:49:18.992Z,0.90
2019-05-29T16:51:50.816Z,1.52
2019-05-29T16:54:23.212Z,2.02
2019-05-29T16:56:54.666Z,4.17
2019-05-29T16:59:29.795Z,2.62
2019-05-29T17:01:59.202Z,2.80
2019-05-29T17:04:30.378Z,2.75
2019-05-29T17:07:01.976Z,3.55
2019-05-29T17:09:33.505Z,1.50
2019-05-29T17:12:04.786Z,2.42
2019-05-29T17:14:36.332Z,1.90
2019-05-29T17:17:08.333Z,3.58
2019-05-29T17:19:40.579Z,2.65
2019-05-29T17:22:11.819Z,2.20
2019-05-29T17:24:42.926Z,1.47
2019-05-29T17:27:14.539Z,1.80
2019-05-29T17:29:46.057Z,2.70
2019-05-29T17:32:17.352Z,2.45
2019-05-29T17:34:49.904Z,2.10
2019-05-29T17:37:21.276Z,1.92
2019-05-29T17:39:52.612Z,1.70
2019-05-29T17:42:24.511Z,0.98
2019-05-29T17:44:56.873Z,2.33
2019-05-29T17:47:29.085Z,1.67
2019-05-29T17:50:00.606Z,2.20
2019-05-29T17:52:32.039Z,4.53
2019-05-29T17:55:03.445Z,2.25
2019-05-29T17:57:36.749Z,2.65
2019-05-29T18:00:12.421Z,2.10
2019-05-29T18:02:51.943Z,1.07
2019-05-29T18:05:18.607Z,2.98
2019-05-29T18:07:50.044Z,4.65
2019-05-29T18:10:22.812Z,1.30
2019-05-29T18:12:54.879Z,1.92
2019-05-29T18:15:29.890Z,1.17
2019-05-29T18:18:00.034Z,3.60
2019-05-29T18:20:31.352Z,1.47
2019-05-29T18:23:03.716Z,2.22
2019-05-29T18:25:34.983Z,1.67
2019-05-29T18:28:06.461Z,1.67
2019-05-29T18:30:37.721Z,1.85
2019-05-29T18:33:09.017Z,1.60
2019-05-29T18:35:40.445Z,3.05
2019-05-29T18:38:11.684Z,1.62
2019-05-29T18:40:42.877Z,2.75
2019-05-29T18:43:14.542Z,2.67
2019-05-29T18:45:46.656Z,1.35
2019-05-29T18:48:17.875Z,1.80
2019-05-29T18:50:49.503Z,1.82
2019-05-29T18:53:20.881Z,1.82
2019-05-29T18:55:53.322Z,2.50
2019-05-29T18:58:24.630Z,1.95
2019-05-29T19:00:56.523Z,2.20
2019-05-29T19:03:27.986Z,1.82
2019-05-29T19:05:59.503Z,3.10
2019-05-29T19:08:31.921Z,2.33
2019-05-29T19:11:03.457Z,2.65
2019-05-29T19:13:35.414Z,3.25
2019-05-29T19:16:06.707Z,2.22
2019-05-29T19:18:38.423Z,2.85
2019-05-29T19:21:09.631Z,4.33
2019-05-29T19:23:40.986Z,2.05
2019-05-29T19:26:12.272Z,1.57
2019-05-29T19:28:43.887Z,1.98
2019-05-29T19:31:15.088Z,1.98
2019-05-29T19:33:46.490Z,3.22
2019-05-29T19:36:17.844Z,3.98
2019-05-29T19:38:50.178Z,2.37
2019-05-29T19:41:21.504Z,2.12
2019-05-29T19:43:54.257Z,1.90
2019-05-29T19:46:26.378Z,1.85
2019-05-29T19:48:57.600Z,2.37
2019-05-29T19:51:29.205Z,1.57
2019-05-29T19:54:00.889Z,2.27
2019-05-29T19:56:32.152Z,2.87
2019-05-29T19:59:03.478Z,5.30
2019-05-29T20:01:39.976Z,1.98
2019-05-29T20:04:08.280Z,2.42
2019-05-29T20:06:39.878Z,2.95
2019-05-29T20:09:11.209Z,2.50
2019-05-29T20:11:42.891Z,2.37
2019-05-29T20:14:14.292Z,4.80
2019-05-29T20:16:45.844Z,2.12
2019-05-29T20:19:17.147Z,4.42
2019-05-29T20:21:49.041Z,3.20
2019-05-29T20:24:20.354Z,2.52
2019-05-29T20:26:51.831Z,5.45
2019-05-29T20:29:23.425Z,2.45
2019-05-29T20:31:56.038Z,2.50
2019-05-29T20:34:27.244Z,2.55
2019-05-29T20:36:58.517Z,2.47
2019-05-29T20:39:30.205Z,2.77
2019-05-29T20:42:01.607Z,2.58
2019-05-29T20:44:32.922Z,4.33
2019-05-29T20:47:04.536Z,3.10
2019-05-29T20:49:36.029Z,2.65
2019-05-29T20:52:07.451Z,2.42
2019-05-29T20:54:39.743Z,3.15
2019-05-29T20:57:11.462Z,2.10
2019-05-29T20:59:42.941Z,3.27
2019-05-29T21:02:14.529Z,2.65
2019-05-29T21:04:46.079Z,2.27
2019-05-29T21:07:17.372Z,3.47
2019-05-29T21:09:49.084Z,2.33
2019-05-29T21:12:20.281Z,2.33
2019-05-29T21:14:51.584Z,2.22
2019-05-29T21:17:22.798Z,3.25
2019-05-29T21:19:54.685Z,2.27
2019-05-29T21:22:25.932Z,3.15
2019-05-29T21:25:03.908Z,4.50
2019-05-29T21:27:30.737Z,2.12
2019-05-29T21:30:01.882Z,2.10
2019-05-29T21:32:33.124Z,2.20
2019-05-29T21:35:04.461Z,3.22
2019-05-29T21:37:36.204Z,3.17
2019-05-29T21:40:08.215Z,3.72
2019-05-29T21:42:40.543Z,3.92
2019-05-29T21:45:12.375Z,7.67
2019-05-29T21:47:45.049Z,3.55
2019-05-29T21:50:16.401Z,4.80
2019-05-29T21:52:47.742Z,2.65
2019-05-29T21:55:19.129Z,2.58
2019-05-29T21:57:50.653Z,3.58
2019-05-29T22:00:31.144Z,2.80
2019-05-29T22:03:04.795Z,3.25
2019-05-29T22:05:36.374Z,3.62
2019-05-29T22:08:08.089Z,4.55
2019-05-29T22:10:39.386Z,2.20
2019-05-29T22:13:10.584Z,2.80
2019-05-29T22:15:42.243Z,2.98
2019-05-29T22:18:13.617Z,2.62
2019-05-29T22:20:44.893Z,2.40
2019-05-29T22:23:16.128Z,2.15
2019-05-29T22:25:47.533Z,3.20
2019-05-29T22:28:18.949Z,3.70
2019-05-29T22:30:53.379Z,2.00
2019-05-29T22:33:24.719Z,2.02
2019-05-29T22:35:57.490Z,2.10
2019-05-29T22:38:29.158Z,2.55
2019-05-29T22:41:01.899Z,2.65
2019-05-29T22:43:33.389Z,2.00
2019-05-29T22:46:04.834Z,4.35
2019-05-29T22:48:36.195Z,2.98
2019-05-29T22:51:07.874Z,2.85
2019-05-29T22:53:39.450Z,2.33
2019-05-29T22:56:10.667Z,3.20
2019-05-29T22:58:41.909Z,3.10
2019-05-29T23:01:15.121Z,3.42
2019-05-29T23:03:46.230Z,2.47
2019-05-29T23:06:17.458Z,2.20
2019-05-29T23:08:49.466Z,2.20
2019-05-29T23:11:21.014Z,2.12
2019-05-29T23:13:52.379Z,3.20
2019-05-29T23:16:23.577Z,1.90
2019-05-29T23:18:54.846Z,2.40
2019-05-29T23:21:26.074Z,1.98
2019-05-29T23:23:57.922Z,2.25
2019-05-29T23:26:29.109Z,2.27
2019-05-29T23:29:00.965Z,4.58
2019-05-29T23:31:32.388Z,2.65
2019-05-29T23:34:05.702Z,1.85
2019-05-29T23:36:37.006Z,3.00
2019-05-29T23:39:08.697Z,2.08
2019-05-29T23:41:39.953Z,2.65
2019-05-29T23:44:11.186Z,2.00
2019-05-29T23:46:42.483Z,3.22
2019-05-29T23:49:13.731Z,3.72
2019-05-29T23:51:45.438Z,2.25
2019-05-29T23:54:16.665Z,2.20
2019-05-29T23:56:48.240Z,3.35
2019-05-29T23:59:19.436Z,3.27
